sensor_id;sensor_type;location;lat;lon;timestamp;pressure;altitude;pressure_sealevel;temperature;humidity
47636;BME280;33364;50.766;15.338;2023-01-28T00:00:06;95280.00;;;-1.96;81.54
47636;BME280;33364;50.766;15.338;2023-01-28T00:02:53;95286.22;;;-1.97;79.68
47636;BME280;33364;50.766;15.338;2023-01-28T00:05:19;95286.25;;;-1.89;80.57
47636;BME280;33364;50.766;15.338;2023-01-28T00:07:48;95280.06;;;-1.80;80.25
47636;BME280;33364;50.766;15.338;2023-01-28T00:10:14;95285.25;;;-1.80;78.64
47636;BME280;33364;50.766;15.338;2023-01-28T00:12:40;95275.50;;;-1.86;78.09
47636;BME280;33364;50.766;15.338;2023-01-28T00:15:06;95274.34;;;-1.83;79.52
47636;BME280;33364;50.766;15.338;2023-01-28T00:17:32;95275.34;;;-1.85;79.50
47636;BME280;33364;50.766;15.338;2023-01-28T00:19:58;95274.66;;;-1.87;77.36
47636;BME280;33364;50.766;15.338;2023-01-28T00:22:24;95270.75;;;-1.99;76.84
47636;BME280;33364;50.766;15.338;2023-01-28T00:24:49;95274.50;;;-1.93;78.17
47636;BME280;33364;50.766;15.338;2023-01-28T00:27:15;95280.81;;;-2.04;78.07
47636;BME280;33364;50.766;15.338;2023-01-28T00:29:41;95274.38;;;-2.26;77.07
47636;BME280;33364;50.766;15.338;2023-01-28T00:32:07;95273.75;;;-2.28;80.15
47636;BME280;33364;50.766;15.338;2023-01-28T00:34:32;95269.72;;;-2.14;80.59
47636;BME280;33364;50.766;15.338;2023-01-28T00:36:58;95277.69;;;-2.08;79.41
47636;BME280;33364;50.766;15.338;2023-01-28T00:39:25;95277.63;;;-2.24;77.91
47636;BME280;33364;50.766;15.338;2023-01-28T00:41:52;95284.69;;;-2.16;79.01
47636;BME280;33364;50.766;15.338;2023-01-28T00:44:18;95273.78;;;-2.20;79.57
47636;BME280;33364;50.766;15.338;2023-01-28T00:46:45;95270.84;;;-2.17;80.50
47636;BME280;33364;50.766;15.338;2023-01-28T00:49:10;95269.22;;;-2.18;78.78
47636;BME280;33364;50.766;15.338;2023-01-28T00:51:37;95270.47;;;-2.30;78.44
47636;BME280;33364;50.766;15.338;2023-01-28T00:54:02;95266.84;;;-2.37;79.54
47636;BME280;33364;50.766;15.338;2023-01-28T00:56:29;95263.28;;;-2.36;78.78
47636;BME280;33364;50.766;15.338;2023-01-28T00:58:54;95266.25;;;-2.31;80.00
47636;BME280;33364;50.766;15.338;2023-01-28T01:01:23;95269.03;;;-2.25;79.86
47636;BME280;33364;50.766;15.338;2023-01-28T01:03:49;95276.44;;;-2.04;81.96
47636;BME280;33364;50.766;15.338;2023-01-28T01:06:28;95281.19;;;-1.91;81.85
47636;BME280;33364;50.766;15.338;2023-01-28T01:08:54;95281.53;;;-1.86;81.63
47636;BME280;33364;50.766;15.338;2023-01-28T01:11:20;95281.63;;;-2.04;78.66
47636;BME280;33364;50.766;15.338;2023-01-28T01:13:53;95277.66;;;-2.16;78.85
47636;BME280;33364;50.766;15.338;2023-01-28T01:16:22;95281.66;;;-1.95;82.17
47636;BME280;33364;50.766;15.338;2023-01-28T01:18:49;95284.09;;;-1.94;79.82
47636;BME280;33364;50.766;15.338;2023-01-28T01:21:18;95281.38;;;-1.84;79.60
47636;BME280;33364;50.766;15.338;2023-01-28T01:23:45;95281.63;;;-2.04;78.16
47636;BME280;33364;50.766;15.338;2023-01-28T01:26:11;95282.47;;;-1.95;80.01
47636;BME280;33364;50.766;15.338;2023-01-28T01:28:37;95281.38;;;-1.84;80.66
47636;BME280;33364;50.766;15.338;2023-01-28T01:31:09;95278.75;;;-1.92;78.91
47636;BME280;33364;50.766;15.338;2023-01-28T01:33:35;95278.94;;;-1.77;81.22
47636;BME280;33364;50.766;15.338;2023-01-28T01:36:02;95278.94;;;-1.77;78.41
47636;BME280;33364;50.766;15.338;2023-01-28T01:38:28;95284.91;;;-1.93;77.22
47636;BME280;33364;50.766;15.338;2023-01-28T01:40:59;95287.72;;;-1.70;82.07
47636;BME280;33364;50.766;15.338;2023-01-28T01:43:45;95284.50;;;-1.56;80.83
47636;BME280;33364;50.766;15.338;2023-01-28T01:46:12;95286.94;;;-1.62;78.01
47636;BME280;33364;50.766;15.338;2023-01-28T01:48:39;95287.41;;;-1.67;79.84
47636;BME280;33364;50.766;15.338;2023-01-28T01:51:09;95288.59;;;-1.53;80.10
47636;BME280;33364;50.766;15.338;2023-01-28T01:53:40;95281.44;;;-1.43;79.68
47636;BME280;33364;50.766;15.338;2023-01-28T01:56:10;95286.63;;;-1.59;77.78
47636;BME280;33364;50.766;15.338;2023-01-28T01:58:40;95288.59;;;-1.45;78.05
47636;BME280;33364;50.766;15.338;2023-01-28T02:01:09;95289.25;;;-1.51;78.86
47636;BME280;33364;50.766;15.338;2023-01-28T02:03:46;95294.13;;;-1.56;79.48
47636;BME280;33364;50.766;15.338;2023-01-28T02:06:13;95294.75;;;-1.62;80.00
47636;BME280;33364;50.766;15.338;2023-01-28T02:08:39;95304.22;;;-1.53;78.79
47636;BME280;33364;50.766;15.338;2023-01-28T02:11:07;95301.00;;;-1.39;80.88
47636;BME280;33364;50.766;15.338;2023-01-28T02:13:37;95309.16;;;-1.34;81.12
47636;BME280;33364;50.766;15.338;2023-01-28T02:16:05;95304.41;;;-1.30;78.81
47636;BME280;33364;50.766;15.338;2023-01-28T02:18:32;95298.06;;;-1.27;79.24
47636;BME280;33364;50.766;15.338;2023-01-28T02:21:22;95301.63;;;-1.45;78.77
47636;BME280;33364;50.766;15.338;2023-01-28T02:26:48;95300.31;;;-1.49;78.21
47636;BME280;33364;50.766;15.338;2023-01-28T02:37:36;95307.91;;;-1.72;76.94
47636;BME280;33364;50.766;15.338;2023-01-28T02:40:36;95306.94;;;-1.79;77.72
47636;BME280;33364;50.766;15.338;2023-01-28T02:43:40;95306.22;;;-1.98;78.45
47636;BME280;33364;50.766;15.338;2023-01-28T02:49:03;95308.28;;;-2.10;78.03
47636;BME280;33364;50.766;15.338;2023-01-28T02:59:39;95304.44;;;-1.97;78.01
47636;BME280;33364;50.766;15.338;2023-01-28T03:02:28;95310.63;;;-1.90;78.18
47636;BME280;33364;50.766;15.338;2023-01-28T03:05:09;95304.41;;;-2.06;76.35
47636;BME280;33364;50.766;15.338;2023-01-28T03:07:39;95303.91;;;-2.09;76.78
47636;BME280;33364;50.766;15.338;2023-01-28T03:10:08;95320.78;;;-2.22;77.02
47636;BME280;33364;50.766;15.338;2023-01-28T03:12:39;95306.28;;;-2.24;77.96
47636;BME280;33364;50.766;15.338;2023-01-28T03:15:28;95306.91;;;-2.30;78.01
47636;BME280;33364;50.766;15.338;2023-01-28T03:18:23;95308.25;;;-2.18;78.88
47636;BME280;33364;50.766;15.338;2023-01-28T03:23:59;95309.63;;;-2.06;79.46
47636;BME280;33364;50.766;15.338;2023-01-28T03:27:37;95310.00;;;-1.92;79.60
47636;BME280;33364;50.766;15.338;2023-01-28T03:30:30;95319.97;;;-1.71;80.86
47636;BME280;33364;50.766;15.338;2023-01-28T03:33:16;95315.28;;;-1.68;78.08
47636;BME280;33364;50.766;15.338;2023-01-28T03:36:01;95320.16;;;-1.64;79.21
47636;BME280;33364;50.766;15.338;2023-01-28T03:38:46;95317.41;;;-1.55;78.71
47636;BME280;33364;50.766;15.338;2023-01-28T03:41:19;95315.59;;;-1.62;77.78
47636;BME280;33364;50.766;15.338;2023-01-28T03:43:47;95319.53;;;-1.50;77.71
47636;BME280;33364;50.766;15.338;2023-01-28T03:46:13;95313.31;;;-1.57;75.91
47636;BME280;33364;50.766;15.338;2023-01-28T03:48:39;95316.59;;;-1.63;76.04
47636;BME280;33364;50.766;15.338;2023-01-28T03:51:05;95319.53;;;-1.58;76.77
47636;BME280;33364;50.766;15.338;2023-01-28T03:53:32;95320.34;;;-1.58;77.03
47636;BME280;33364;50.766;15.338;2023-01-28T03:55:57;95314.94;;;-1.64;76.90
47636;BME280;33364;50.766;15.338;2023-01-28T03:58:24;95312.97;;;-1.71;75.75
47636;BME280;33364;50.766;15.338;2023-01-28T04:00:54;95313.63;;;-1.69;75.66
47636;BME280;33364;50.766;15.338;2023-01-28T04:03:20;95323.75;;;-1.57;76.62
47636;BME280;33364;50.766;15.338;2023-01-28T04:06:07;95315.75;;;-1.64;76.20
47636;BME280;33364;50.766;15.338;2023-01-28T04:08:33;95323.38;;;-1.79;75.57
47636;BME280;33364;50.766;15.338;2023-01-28T04:10:59;95321.88;;;-1.81;75.16
47636;BME280;33364;50.766;15.338;2023-01-28T04:13:41;95324.47;;;-1.90;75.91
47636;BME280;33364;50.766;15.338;2023-01-28T04:16:07;95326.66;;;-1.69;78.40
47636;BME280;33364;50.766;15.338;2023-01-28T04:18:34;95330.41;;;-1.71;76.48
47636;BME280;33364;50.766;15.338;2023-01-28T04:20:59;95324.88;;;-1.68;77.22
47636;BME280;33364;50.766;15.338;2023-01-28T04:23:25;95325.97;;;-1.79;74.58
47636;BME280;33364;50.766;15.338;2023-01-28T04:25:51;95334.13;;;-1.74;76.63
47636;BME280;33364;50.766;15.338;2023-01-28T04:28:17;95330.72;;;-1.74;74.39
47636;BME280;33364;50.766;15.338;2023-01-28T04:30:42;95331.22;;;-1.62;75.41
47636;BME280;33364;50.766;15.338;2023-01-28T04:33:08;95333.09;;;-1.38;79.18
47636;BME280;33364;50.766;15.338;2023-01-28T04:35:34;95335.38;;;-1.27;77.79
47636;BME280;33364;50.766;15.338;2023-01-28T04:38:00;95341.91;;;-1.06;80.27
47636;BME280;33364;50.766;15.338;2023-01-28T04:40:26;95330.31;;;-1.45;76.86
47636;BME280;33364;50.766;15.338;2023-01-28T04:42:53;95336.81;;;-1.33;79.26
47636;BME280;33364;50.766;15.338;2023-01-28T04:45:19;95331.97;;;-1.19;78.33
47636;BME280;33364;50.766;15.338;2023-01-28T04:47:45;95327.38;;;-1.34;78.02
47636;BME280;33364;50.766;15.338;2023-01-28T04:50:10;95331.75;;;-1.34;76.14
47636;BME280;33364;50.766;15.338;2023-01-28T04:52:36;95330.81;;;-1.33;76.05
47636;BME280;33364;50.766;15.338;2023-01-28T04:55:02;95326.69;;;-1.44;75.41
47636;BME280;33364;50.766;15.338;2023-01-28T04:57:28;95326.38;;;-1.41;76.74
47636;BME280;33364;50.766;15.338;2023-01-28T04:59:54;95337.81;;;-1.42;74.41
47636;BME280;33364;50.766;15.338;2023-01-28T05:02:20;95333.09;;;-1.38;76.60
47636;BME280;33364;50.766;15.338;2023-01-28T05:04:45;95335.38;;;-1.27;76.58
47636;BME280;33364;50.766;15.338;2023-01-28T05:07:11;95337.63;;;-1.49;74.70
47636;BME280;33364;50.766;15.338;2023-01-28T05:09:37;95336.47;;;-1.46;77.06
47636;BME280;33364;50.766;15.338;2023-01-28T05:12:03;95336.78;;;-1.49;73.92
47636;BME280;33364;50.766;15.338;2023-01-28T05:14:29;95336.63;;;-1.48;76.25
47636;BME280;33364;50.766;15.338;2023-01-28T05:16:55;95343.66;;;-1.48;73.49
47636;BME280;33364;50.766;15.338;2023-01-28T05:19:20;95346.72;;;-1.61;71.79
47636;BME280;33364;50.766;15.338;2023-01-28T05:21:46;95351.47;;;-1.48;76.75
47636;BME280;33364;50.766;15.338;2023-01-28T05:24:12;95345.94;;;-1.37;75.50
47636;BME280;33364;50.766;15.338;2023-01-28T05:26:38;95352.78;;;-1.36;74.86
47636;BME280;33364;50.766;15.338;2023-01-28T05:29:03;95350.00;;;-1.34;77.48
47636;BME280;33364;50.766;15.338;2023-01-28T05:31:29;95351.81;;;-1.35;75.39
47636;BME280;33364;50.766;15.338;2023-01-28T05:33:55;95358.63;;;-1.50;74.00
47636;BME280;33364;50.766;15.338;2023-01-28T05:36:21;95361.56;;;-1.53;74.26
47636;BME280;33364;50.766;15.338;2023-01-28T05:38:46;95359.59;;;-1.51;75.90
47636;BME280;33364;50.766;15.338;2023-01-28T05:41:12;95364.84;;;-1.43;77.87
47636;BME280;33364;50.766;15.338;2023-01-28T05:43:38;95364.84;;;-1.35;77.51
47636;BME280;33364;50.766;15.338;2023-01-28T05:46:04;95359.94;;;-1.38;73.08
47636;BME280;33364;50.766;15.338;2023-01-28T05:48:30;95365.13;;;-1.54;75.95
47636;BME280;33364;50.766;15.338;2023-01-28T05:50:55;95368.00;;;-1.74;74.61
47636;BME280;33364;50.766;15.338;2023-01-28T05:53:21;95368.63;;;-1.80;75.61
47636;BME280;33364;50.766;15.338;2023-01-28T05:55:48;95363.97;;;-1.68;75.78
47636;BME280;33364;50.766;15.338;2023-01-28T05:58:14;95371.47;;;-1.65;77.56
47636;BME280;33364;50.766;15.338;2023-01-28T06:00:40;95369.00;;;-1.75;73.80
47636;BME280;33364;50.766;15.338;2023-01-28T06:03:06;95378.53;;;-1.83;75.08
47636;BME280;33364;50.766;15.338;2023-01-28T06:05:32;95377.59;;;-1.74;75.35
47636;BME280;33364;50.766;15.338;2023-01-28T06:07:58;95377.59;;;-1.74;74.94
47636;BME280;33364;50.766;15.338;2023-01-28T06:10:24;95379.41;;;-1.75;75.29
47636;BME280;33364;50.766;15.338;2023-01-28T06:12:49;95377.19;;;-1.53;77.44
47636;BME280;33364;50.766;15.338;2023-01-28T06:15:15;95375.88;;;-1.49;76.96
47636;BME280;33364;50.766;15.338;2023-01-28T06:17:41;95380.47;;;-1.43;75.64
47636;BME280;33364;50.766;15.338;2023-01-28T06:20:07;95374.28;;;-1.42;77.11
47636;BME280;33364;50.766;15.338;2023-01-28T06:22:33;95380.59;;;-1.53;74.63
47636;BME280;33364;50.766;15.338;2023-01-28T06:24:59;95385.97;;;-1.54;74.10
47636;BME280;33364;50.766;15.338;2023-01-28T06:27:25;95378.19;;;-1.38;76.86
47636;BME280;33364;50.766;15.338;2023-01-28T06:29:52;95381.97;;;-1.40;72.67
47636;BME280;33364;50.766;15.338;2023-01-28T06:32:18;95383.50;;;-1.64;74.28
47636;BME280;33364;50.766;15.338;2023-01-28T06:34:44;95383.34;;;-1.62;74.50
47636;BME280;33364;50.766;15.338;2023-01-28T06:37:13;95385.44;;;-1.74;73.34
47636;BME280;33364;50.766;15.338;2023-01-28T06:39:39;95391.03;;;-1.95;72.65
47636;BME280;33364;50.766;15.338;2023-01-28T06:42:05;95393.09;;;-2.07;74.38
47636;BME280;33364;50.766;15.338;2023-01-28T06:44:31;95391.59;;;-2.10;74.36
47636;BME280;33364;50.766;15.338;2023-01-28T06:46:56;95398.25;;;-2.15;73.91
47636;BME280;33364;50.766;15.338;2023-01-28T06:49:22;95392.16;;;-2.24;73.17
47636;BME280;33364;50.766;15.338;2023-01-28T06:51:48;95399.06;;;-2.15;79.08
47636;BME280;33364;50.766;15.338;2023-01-28T06:54:14;95400.66;;;-2.22;72.76
47636;BME280;33364;50.766;15.338;2023-01-28T06:56:40;95403.88;;;-2.28;72.95
47636;BME280;33364;50.766;15.338;2023-01-28T06:59:06;95406.13;;;-2.33;72.02
47636;BME280;33364;50.766;15.338;2023-01-28T07:01:32;95411.81;;;-2.56;72.28
47636;BME280;33364;50.766;15.338;2023-01-28T07:03:58;95422.59;;;-2.51;74.23
47636;BME280;33364;50.766;15.338;2023-01-28T07:06:24;95412.94;;;-2.59;74.35
47636;BME280;33364;50.766;15.338;2023-01-28T07:08:50;95419.25;;;-2.61;74.78
47636;BME280;33364;50.766;15.338;2023-01-28T07:11:15;95416.31;;;-2.66;76.05
47636;BME280;33364;50.766;15.338;2023-01-28T07:13:41;95416.66;;;-2.61;74.99
47636;BME280;33364;50.766;15.338;2023-01-28T07:16:07;95422.59;;;-2.51;75.01
47636;BME280;33364;50.766;15.338;2023-01-28T07:18:34;95428.81;;;-2.44;75.90
47636;BME280;33364;50.766;15.338;2023-01-28T07:20:59;95433.00;;;-2.51;73.79
47636;BME280;33364;50.766;15.338;2023-01-28T07:23:26;95436.63;;;-2.44;75.50
47636;BME280;33364;50.766;15.338;2023-01-28T07:25:51;95441.81;;;-2.44;74.38
47636;BME280;33364;50.766;15.338;2023-01-28T07:28:17;95440.72;;;-2.41;74.12
47636;BME280;33364;50.766;15.338;2023-01-28T07:30:47;95438.81;;;-2.31;74.85
47636;BME280;33364;50.766;15.338;2023-01-28T07:33:13;95446.72;;;-2.41;73.76
47636;BME280;33364;50.766;15.338;2023-01-28T07:35:39;95446.63;;;-2.31;78.27
47636;BME280;33364;50.766;15.338;2023-01-28T07:38:05;95452.19;;;-2.26;76.86
47636;BME280;33364;50.766;15.338;2023-01-28T07:40:31;95441.13;;;-2.28;77.08
47636;BME280;33364;50.766;15.338;2023-01-28T07:42:57;95443.31;;;-2.15;74.42
47636;BME280;33364;50.766;15.338;2023-01-28T07:45:23;95448.28;;;-2.04;77.10
47636;BME280;33364;50.766;15.338;2023-01-28T07:47:57;95450.72;;;-2.02;76.51
47636;BME280;33364;50.766;15.338;2023-01-28T07:50:24;95449.28;;;-1.96;72.65
47636;BME280;33364;50.766;15.338;2023-01-28T07:52:50;95459.09;;;-2.16;74.41
47636;BME280;33364;50.766;15.338;2023-01-28T07:55:16;95455.63;;;-2.25;75.15
47636;BME280;33364;50.766;15.338;2023-01-28T07:57:56;95462.84;;;-2.19;79.60
47636;BME280;33364;50.766;15.338;2023-01-28T08:00:23;95463.28;;;-1.97;77.27
47636;BME280;33364;50.766;15.338;2023-01-28T08:02:49;95461.13;;;-1.76;76.44
47636;BME280;33364;50.766;15.338;2023-01-28T08:05:19;95458.72;;;-1.69;75.20
47636;BME280;33364;50.766;15.338;2023-01-28T08:07:46;95462.44;;;-1.72;75.67
47636;BME280;33364;50.766;15.338;2023-01-28T08:10:16;95461.78;;;-1.74;75.19
47636;BME280;33364;50.766;15.338;2023-01-28T08:15:18;95473.03;;;-2.44;73.86
47636;BME280;33364;50.766;15.338;2023-01-28T08:17:44;95466.94;;;-2.34;76.20
47636;BME280;33364;50.766;15.338;2023-01-28T08:20:10;95473.50;;;-2.30;75.26
47636;BME280;33364;50.766;15.338;2023-01-28T08:22:36;95479.66;;;-2.31;73.07
47636;BME280;33364;50.766;15.338;2023-01-28T08:25:02;95471.94;;;-2.41;74.52
47636;BME280;33364;50.766;15.338;2023-01-28T08:27:28;95472.81;;;-2.32;76.43
47636;BME280;33364;50.766;15.338;2023-01-28T08:29:54;95479.75;;;-2.41;73.70
47636;BME280;33364;50.766;15.338;2023-01-28T08:32:20;95481.84;;;-2.63;73.99
47636;BME280;33364;50.766;15.338;2023-01-28T08:34:45;95487.19;;;-2.64;73.62
47636;BME280;33364;50.766;15.338;2023-01-28T08:37:11;95487.56;;;-2.77;74.62
47636;BME280;33364;50.766;15.338;2023-01-28T08:39:37;95488.09;;;-2.73;74.84
47636;BME280;33364;50.766;15.338;2023-01-28T08:42:05;95493.66;;;-2.68;77.37
47636;BME280;33364;50.766;15.338;2023-01-28T08:44:32;95488.75;;;-2.53;75.84
47636;BME280;33364;50.766;15.338;2023-01-28T08:46:58;95492.47;;;-2.38;77.50
47636;BME280;33364;50.766;15.338;2023-01-28T08:49:24;95487.97;;;-2.28;76.45
47636;BME280;33364;50.766;15.338;2023-01-28T08:51:50;95495.94;;;-2.29;74.74
47636;BME280;33364;50.766;15.338;2023-01-28T08:54:15;95499.47;;;-2.38;72.70
47636;BME280;33364;50.766;15.338;2023-01-28T08:56:41;95498.25;;;-2.44;74.13
47636;BME280;33364;50.766;15.338;2023-01-28T08:59:12;95493.13;;;-2.36;73.93
47636;BME280;33364;50.766;15.338;2023-01-28T09:01:38;95498.19;;;-2.34;74.82
47636;BME280;33364;50.766;15.338;2023-01-28T09:04:03;95512.16;;;-2.35;73.29
47636;BME280;33364;50.766;15.338;2023-01-28T09:06:29;95505.78;;;-2.41;73.64
47636;BME280;33364;50.766;15.338;2023-01-28T09:08:56;95504.59;;;-2.47;72.87
47636;BME280;33364;50.766;15.338;2023-01-28T09:11:22;95505.69;;;-2.49;74.22
47636;BME280;33364;50.766;15.338;2023-01-28T09:13:48;95513.13;;;-2.54;73.21
47636;BME280;33364;50.766;15.338;2023-01-28T09:16:14;95516.25;;;-2.33;77.24
47636;BME280;33364;50.766;15.338;2023-01-28T09:18:40;95517.19;;;-2.16;74.50
47636;BME280;33364;50.766;15.338;2023-01-28T09:21:06;95520.03;;;-2.27;73.38
47636;BME280;33364;50.766;15.338;2023-01-28T09:23:36;95525.31;;;-2.19;73.01
47636;BME280;33364;50.766;15.338;2023-01-28T09:26:03;95517.75;;;-2.48;70.30
47636;BME280;33364;50.766;15.338;2023-01-28T09:28:30;95524.19;;;-2.34;75.04
47636;BME280;33364;50.766;15.338;2023-01-28T09:31:07;95519.13;;;-2.18;74.85
47636;BME280;33364;50.766;15.338;2023-01-28T09:33:34;95524.97;;;-1.98;73.50
47636;BME280;33364;50.766;15.338;2023-01-28T09:36:02;95524.81;;;-1.96;70.17
47636;BME280;33364;50.766;15.338;2023-01-28T09:38:28;95523.78;;;-2.04;70.76
47636;BME280;33364;50.766;15.338;2023-01-28T09:40:55;95525.00;;;-2.16;70.18
47636;BME280;33364;50.766;15.338;2023-01-28T09:43:46;95515.78;;;-2.10;72.28
47636;BME280;33364;50.766;15.338;2023-01-28T09:46:16;95525.00;;;-2.16;73.62
47636;BME280;33364;50.766;15.338;2023-01-28T09:48:48;95524.25;;;-2.08;69.67
47636;BME280;33364;50.766;15.338;2023-01-28T09:51:31;95529.47;;;-2.26;69.07
47636;BME280;33364;50.766;15.338;2023-01-28T09:54:03;95538.50;;;-2.38;70.29
47636;BME280;33364;50.766;15.338;2023-01-28T09:56:38;95541.16;;;-2.30;71.55
47636;BME280;33364;50.766;15.338;2023-01-28T09:59:15;95542.56;;;-2.36;69.28
47636;BME280;33364;50.766;15.338;2023-01-28T10:04:47;95550.66;;;-2.21;73.64
47636;BME280;33364;50.766;15.338;2023-01-28T10:07:41;95544.38;;;-1.92;77.43
47636;BME280;33364;50.766;15.338;2023-01-28T10:10:13;95547.22;;;-2.04;69.43
47636;BME280;33364;50.766;15.338;2023-01-28T10:18:27;95544.03;;;-1.97;73.10
47636;BME280;33364;50.766;15.338;2023-01-28T10:21:01;95554.50;;;-1.89;70.12
47636;BME280;33364;50.766;15.338;2023-01-28T10:26:25;95550.44;;;-1.83;69.23
47636;BME280;33364;50.766;15.338;2023-01-28T10:29:03;95553.22;;;-1.85;72.08
47636;BME280;33364;50.766;15.338;2023-01-28T10:31:35;95553.38;;;-2.05;68.74
47636;BME280;33364;50.766;15.338;2023-01-28T10:34:01;95547.47;;;-2.15;71.36
47636;BME280;33364;50.766;15.338;2023-01-28T10:36:28;95550.28;;;-2.08;71.99
47636;BME280;33364;50.766;15.338;2023-01-28T10:38:54;95555.63;;;-2.10;71.59
47636;BME280;33364;50.766;15.338;2023-01-28T10:41:21;95545.44;;;-2.03;70.16
47636;BME280;33364;50.766;15.338;2023-01-28T10:43:48;95549.78;;;-1.86;73.80
47636;BME280;33364;50.766;15.338;2023-01-28T10:46:18;95553.47;;;-1.70;70.23
47636;BME280;33364;50.766;15.338;2023-01-28T10:51:33;95546.31;;;-1.42;72.00
47636;BME280;33364;50.766;15.338;2023-01-28T10:53:59;95549.88;;;-1.43;71.21
47636;BME280;33364;50.766;15.338;2023-01-28T10:56:30;95552.25;;;-1.58;69.51
47636;BME280;33364;50.766;15.338;2023-01-28T10:59:05;95535.69;;;-2.01;68.97
47636;BME280;33364;50.766;15.338;2023-01-28T11:04:33;95551.28;;;-2.09;72.58
47636;BME280;33364;50.766;15.338;2023-01-28T11:07:14;95537.34;;;-2.18;72.63
47636;BME280;33364;50.766;15.338;2023-01-28T11:09:45;95548.41;;;-2.16;71.60
47636;BME280;33364;50.766;15.338;2023-01-28T11:17:21;95543.69;;;-2.38;72.75
47636;BME280;33364;50.766;15.338;2023-01-28T11:19:50;95542.50;;;-2.26;73.32
47636;BME280;33364;50.766;15.338;2023-01-28T11:22:23;95543.00;;;-2.41;70.86
47636;BME280;33364;50.766;15.338;2023-01-28T11:24:52;95548.06;;;-2.39;72.09
47636;BME280;33364;50.766;15.338;2023-01-28T11:27:28;95538.34;;;-2.55;73.53
47636;BME280;33364;50.766;15.338;2023-01-28T11:29:57;95544.94;;;-2.43;71.97
47636;BME280;33364;50.766;15.338;2023-01-28T11:32:27;95547.09;;;-2.38;73.46
47636;BME280;33364;50.766;15.338;2023-01-28T11:34:54;95544.56;;;-2.12;73.88
47636;BME280;33364;50.766;15.338;2023-01-28T11:37:23;95552.00;;;-2.17;71.48
47636;BME280;33364;50.766;15.338;2023-01-28T11:40:14;95553.63;;;-2.16;71.68
47636;BME280;33364;50.766;15.338;2023-01-28T11:42:46;95557.63;;;-2.04;72.13
47636;BME280;33364;50.766;15.338;2023-01-28T11:45:18;95556.84;;;-2.04;71.14
47636;BME280;33364;50.766;15.338;2023-01-28T11:50:30;95543.84;;;-2.58;70.87
47636;BME280;33364;50.766;15.338;2023-01-28T11:53:20;95540.63;;;-2.70;70.85
47636;BME280;33364;50.766;15.338;2023-01-28T12:01:11;95551.78;;;-2.60;69.92
47636;BME280;33364;50.766;15.338;2023-01-28T12:09:11;95560.06;;;-2.92;69.47
47636;BME280;33364;50.766;15.338;2023-01-28T12:14:46;95557.81;;;-3.05;70.39
47636;BME280;33364;50.766;15.338;2023-01-28T12:20:27;95555.16;;;-2.95;73.93
47636;BME280;33364;50.766;15.338;2023-01-28T12:31:28;95550.34;;;-3.18;70.35
47636;BME280;33364;50.766;15.338;2023-01-28T12:36:14;95555.06;;;-3.31;70.38
47636;BME280;33364;50.766;15.338;2023-01-28T12:41:28;95561.13;;;-3.50;70.76
47636;BME280;33364;50.766;15.338;2023-01-28T12:44:07;95565.69;;;-3.62;71.98
47636;BME280;33364;50.766;15.338;2023-01-28T12:46:37;95556.22;;;-3.91;72.08
47636;BME280;33364;50.766;15.338;2023-01-28T12:49:45;95544.09;;;-3.62;71.99
47636;BME280;33364;50.766;15.338;2023-01-28T12:52:39;95548.31;;;-3.24;71.96
47636;BME280;33364;50.766;15.338;2023-01-28T12:55:19;95557.56;;;-3.39;69.88
47636;BME280;33364;50.766;15.338;2023-01-28T12:57:48;95558.41;;;-3.48;69.40
47636;BME280;33364;50.766;15.338;2023-01-28T13:00:22;95559.66;;;-3.53;71.00
47636;BME280;33364;50.766;15.338;2023-01-28T13:03:10;95550.50;;;-3.57;74.91
47636;BME280;33364;50.766;15.338;2023-01-28T13:05:47;95559.81;;;-3.54;72.88
47636;BME280;33364;50.766;15.338;2023-01-28T13:08:26;95559.16;;;-3.66;69.47
47636;BME280;33364;50.766;15.338;2023-01-28T13:10:55;95568.25;;;-3.99;70.06
47636;BME280;33364;50.766;15.338;2023-01-28T13:13:32;95566.63;;;-4.10;70.87
47636;BME280;33364;50.766;15.338;2023-01-28T13:16:00;95569.50;;;-4.03;71.04
47636;BME280;33364;50.766;15.338;2023-01-28T13:24:16;95560.28;;;-3.78;70.39
47636;BME280;33364;50.766;15.338;2023-01-28T13:26:52;95562.28;;;-3.62;75.61
47636;BME280;33364;50.766;15.338;2023-01-28T13:32:00;95558.91;;;-3.35;71.90
47636;BME280;33364;50.766;15.338;2023-01-28T13:34:41;95560.75;;;-3.55;70.00
47636;BME280;33364;50.766;15.338;2023-01-28T13:37:26;95567.59;;;-3.54;69.90
47636;BME280;33364;50.766;15.338;2023-01-28T13:40:00;95560.53;;;-3.72;68.63
47636;BME280;33364;50.766;15.338;2023-01-28T13:42:29;95564.28;;;-3.94;69.28
47636;BME280;33364;50.766;15.338;2023-01-28T13:44:55;95561.91;;;-3.77;70.21
47636;BME280;33364;50.766;15.338;2023-01-28T13:50:17;95557.56;;;-3.96;68.12
47636;BME280;33364;50.766;15.338;2023-01-28T13:55:19;95563.91;;;-4.28;70.47
47636;BME280;33364;50.766;15.338;2023-01-28T14:20:06;95596.09;;;-4.70;72.54
47636;BME280;33364;50.766;15.338;2023-01-28T14:22:40;95599.94;;;-4.54;71.38
47636;BME280;33364;50.766;15.338;2023-01-28T14:25:11;95596.66;;;-4.56;70.51
47636;BME280;33364;50.766;15.338;2023-01-28T14:27:43;95599.38;;;-4.48;72.34
47636;BME280;33364;50.766;15.338;2023-01-28T14:33:01;95604.31;;;-4.35;70.50
47636;BME280;33364;50.766;15.338;2023-01-28T14:35:31;95608.41;;;-4.33;74.81
47636;BME280;33364;50.766;15.338;2023-01-28T14:37:59;95621.81;;;-4.28;72.22
47636;BME280;33364;50.766;15.338;2023-01-28T14:40:32;95620.84;;;-4.36;70.24
47636;BME280;33364;50.766;15.338;2023-01-28T14:43:00;95624.22;;;-4.55;70.23
47636;BME280;33364;50.766;15.338;2023-01-28T14:48:23;95630.72;;;-4.71;71.20
47636;BME280;33364;50.766;15.338;2023-01-28T15:01:47;95625.16;;;-5.07;75.85
47636;BME280;33364;50.766;15.338;2023-01-28T15:06:50;95639.38;;;-4.61;70.62
47636;BME280;33364;50.766;15.338;2023-01-28T15:09:15;95631.59;;;-4.61;73.54
47636;BME280;33364;50.766;15.338;2023-01-28T15:11:43;95633.97;;;-4.88;69.64
47636;BME280;33364;50.766;15.338;2023-01-28T15:14:20;95631.06;;;-5.05;69.08
47636;BME280;33364;50.766;15.338;2023-01-28T15:16:48;95636.56;;;-5.29;69.88
47636;BME280;33364;50.766;15.338;2023-01-28T15:19:15;95637.66;;;-5.22;70.33
47636;BME280;33364;50.766;15.338;2023-01-28T15:21:44;95644.53;;;-5.11;71.22